Autaugaville, Alabama
Current Conditions -  °F | °C
As of 2:15 AM on Saturday 25 Oct 2014 (Local Time) from K1A9 Reporting Station
Clear Clear  
Wind Chill: 44°   Ceiling: Unl
Heat Index: 44°   Visibility: 10mi
Dew Point: 43°   Wind: 0mph
Humidity: 95%   Direction: NA
Pressure: 30.06"   Gusts: NA
Location:  32.43°N, 86.65°W
Report Text: K1A9 250715Z AUTO 00000KT 10SM CLR 07/06 A3006 RMK AO2 T00690062
Loading
Personal Weather Stations






























Interactive Weather Map New forecast layout! Learn more

10-Day Weather Forecast

Advertisements
Track Severe Weather on mobile